sensor_id;sensor_type;location;lat;lon;timestamp;P1;durP1;ratioP1;P2;durP2;ratioP2
18905;SDS011;9585;51.018;4.282;2023-04-24T00:01:40;13.93;;;9.55;;
18905;SDS011;9585;51.018;4.282;2023-04-24T00:04:15;14.73;;;9.60;;
18905;SDS011;9585;51.018;4.282;2023-04-24T00:06:54;15.68;;;10.13;;
18905;SDS011;9585;51.018;4.282;2023-04-24T00:09:25;15.45;;;10.05;;
18905;SDS011;9585;51.018;4.282;2023-04-24T00:11:53;15.55;;;10.05;;
18905;SDS011;9585;51.018;4.282;2023-04-24T00:14:21;12.38;;;9.75;;
18905;SDS011;9585;51.018;4.282;2023-04-24T00:16:51;19.60;;;11.05;;
18905;SDS011;9585;51.018;4.282;2023-04-24T00:19:18;19.10;;;11.20;;
18905;SDS011;9585;51.018;4.282;2023-04-24T00:21:47;15.52;;;10.15;;
18905;SDS011;9585;51.018;4.282;2023-04-24T00:24:16;15.57;;;10.10;;
18905;SDS011;9585;51.018;4.282;2023-04-24T00:26:43;16.23;;;10.90;;
18905;SDS011;9585;51.018;4.282;2023-04-24T00:29:14;15.23;;;10.40;;
18905;SDS011;9585;51.018;4.282;2023-04-24T00:31:45;14.68;;;9.88;;
18905;SDS011;9585;51.018;4.282;2023-04-24T00:34:19;13.20;;;10.20;;
18905;SDS011;9585;51.018;4.282;2023-04-24T00:36:48;15.45;;;10.73;;
18905;SDS011;9585;51.018;4.282;2023-04-24T00:39:24;15.48;;;11.15;;
18905;SDS011;9585;51.018;4.282;2023-04-24T00:41:56;14.00;;;10.57;;
18905;SDS011;9585;51.018;4.282;2023-04-24T00:44:30;14.40;;;10.10;;
18905;SDS011;9585;51.018;4.282;2023-04-24T00:47:23;16.58;;;11.00;;
18905;SDS011;9585;51.018;4.282;2023-04-24T00:49:54;14.50;;;10.23;;
18905;SDS011;9585;51.018;4.282;2023-04-24T00:52:22;14.35;;;9.98;;
18905;SDS011;9585;51.018;4.282;2023-04-24T00:54:53;14.82;;;10.45;;
18905;SDS011;9585;51.018;4.282;2023-04-24T00:57:27;15.90;;;10.35;;
18905;SDS011;9585;51.018;4.282;2023-04-24T00:59:57;12.35;;;9.70;;
18905;SDS011;9585;51.018;4.282;2023-04-24T01:02:31;15.70;;;10.55;;
18905;SDS011;9585;51.018;4.282;2023-04-24T01:05:04;13.40;;;10.10;;
18905;SDS011;9585;51.018;4.282;2023-04-24T01:07:33;16.77;;;10.75;;
18905;SDS011;9585;51.018;4.282;2023-04-24T01:10:01;17.70;;;10.50;;
18905;SDS011;9585;51.018;4.282;2023-04-24T01:12:29;17.70;;;10.90;;
18905;SDS011;9585;51.018;4.282;2023-04-24T01:14:59;15.43;;;10.35;;
18905;SDS011;9585;51.018;4.282;2023-04-24T01:17:28;14.30;;;10.85;;
18905;SDS011;9585;51.018;4.282;2023-04-24T01:19:56;16.08;;;10.45;;
18905;SDS011;9585;51.018;4.282;2023-04-24T01:22:35;15.43;;;10.25;;
18905;SDS011;9585;51.018;4.282;2023-04-24T01:25:09;14.18;;;10.38;;
18905;SDS011;9585;51.018;4.282;2023-04-24T01:27:46;14.65;;;10.05;;
18905;SDS011;9585;51.018;4.282;2023-04-24T01:30:21;15.40;;;9.75;;
18905;SDS011;9585;51.018;4.282;2023-04-24T01:32:49;13.45;;;9.93;;
18905;SDS011;9585;51.018;4.282;2023-04-24T01:35:18;14.43;;;10.13;;
18905;SDS011;9585;51.018;4.282;2023-04-24T01:37:47;11.68;;;9.38;;
18905;SDS011;9585;51.018;4.282;2023-04-24T01:40:14;11.73;;;8.75;;
18905;SDS011;9585;51.018;4.282;2023-04-24T01:42:42;10.55;;;8.35;;
18905;SDS011;9585;51.018;4.282;2023-04-24T01:45:13;10.20;;;8.18;;
18905;SDS011;9585;51.018;4.282;2023-04-24T01:47:40;11.98;;;7.72;;
18905;SDS011;9585;51.018;4.282;2023-04-24T01:50:12;9.80;;;7.50;;
18905;SDS011;9585;51.018;4.282;2023-04-24T01:52:40;8.38;;;7.05;;
18905;SDS011;9585;51.018;4.282;2023-04-24T01:55:14;8.32;;;7.18;;
18905;SDS011;9585;51.018;4.282;2023-04-24T01:57:43;9.18;;;7.13;;
18905;SDS011;9585;51.018;4.282;2023-04-24T02:00:18;9.05;;;6.93;;
18905;SDS011;9585;51.018;4.282;2023-04-24T02:02:46;9.93;;;6.88;;
18905;SDS011;9585;51.018;4.282;2023-04-24T02:05:13;8.57;;;6.35;;
18905;SDS011;9585;51.018;4.282;2023-04-24T02:07:41;8.73;;;6.57;;
18905;SDS011;9585;51.018;4.282;2023-04-24T02:10:09;6.97;;;5.85;;
18905;SDS011;9585;51.018;4.282;2023-04-24T02:12:42;7.25;;;6.30;;
18905;SDS011;9585;51.018;4.282;2023-04-24T02:15:14;7.97;;;5.90;;
18905;SDS011;9585;51.018;4.282;2023-04-24T02:17:45;7.72;;;6.00;;
18905;SDS011;9585;51.018;4.282;2023-04-24T02:20:13;8.38;;;6.28;;
18905;SDS011;9585;51.018;4.282;2023-04-24T02:22:42;7.88;;;6.00;;
18905;SDS011;9585;51.018;4.282;2023-04-24T02:25:10;8.57;;;6.00;;
18905;SDS011;9585;51.018;4.282;2023-04-24T02:27:42;7.70;;;6.22;;
18905;SDS011;9585;51.018;4.282;2023-04-24T02:30:13;7.95;;;6.13;;
18905;SDS011;9585;51.018;4.282;2023-04-24T02:32:42;7.40;;;5.95;;
18905;SDS011;9585;51.018;4.282;2023-04-24T02:35:10;9.05;;;7.10;;
18905;SDS011;9585;51.018;4.282;2023-04-24T02:37:41;7.68;;;6.88;;
18905;SDS011;9585;51.018;4.282;2023-04-24T02:40:09;9.48;;;7.00;;
18905;SDS011;9585;51.018;4.282;2023-04-24T02:42:37;9.95;;;7.97;;
18905;SDS011;9585;51.018;4.282;2023-04-24T02:45:13;9.20;;;7.55;;
18905;SDS011;9585;51.018;4.282;2023-04-24T02:47:48;8.88;;;7.25;;
18905;SDS011;9585;51.018;4.282;2023-04-24T02:50:16;9.45;;;7.63;;
18905;SDS011;9585;51.018;4.282;2023-04-24T02:52:43;9.98;;;7.95;;
18905;SDS011;9585;51.018;4.282;2023-04-24T02:55:12;11.20;;;8.10;;
18905;SDS011;9585;51.018;4.282;2023-04-24T02:57:43;11.43;;;8.40;;
18905;SDS011;9585;51.018;4.282;2023-04-24T03:00:13;10.65;;;8.07;;
18905;SDS011;9585;51.018;4.282;2023-04-24T03:02:53;11.00;;;7.80;;
18905;SDS011;9585;51.018;4.282;2023-04-24T03:05:21;10.00;;;8.20;;
18905;SDS011;9585;51.018;4.282;2023-04-24T03:07:49;8.73;;;7.57;;
18905;SDS011;9585;51.018;4.282;2023-04-24T03:10:21;9.15;;;7.65;;
18905;SDS011;9585;51.018;4.282;2023-04-24T03:12:49;9.40;;;7.38;;
18905;SDS011;9585;51.018;4.282;2023-04-24T03:18:11;9.82;;;7.28;;
18905;SDS011;9585;51.018;4.282;2023-04-24T03:20:39;10.27;;;7.07;;
18905;SDS011;9585;51.018;4.282;2023-04-24T03:23:09;9.40;;;7.18;;
18905;SDS011;9585;51.018;4.282;2023-04-24T03:25:40;8.35;;;6.85;;
18905;SDS011;9585;51.018;4.282;2023-04-24T03:28:11;10.13;;;6.75;;
18905;SDS011;9585;51.018;4.282;2023-04-24T03:30:40;9.98;;;7.07;;
18905;SDS011;9585;51.018;4.282;2023-04-24T03:33:11;8.52;;;6.97;;
18905;SDS011;9585;51.018;4.282;2023-04-24T03:35:42;8.88;;;6.40;;
18905;SDS011;9585;51.018;4.282;2023-04-24T03:38:18;7.95;;;7.03;;
18905;SDS011;9585;51.018;4.282;2023-04-24T03:40:59;7.72;;;6.50;;
18905;SDS011;9585;51.018;4.282;2023-04-24T03:43:29;7.97;;;6.57;;
18905;SDS011;9585;51.018;4.282;2023-04-24T03:46:00;7.70;;;6.30;;
18905;SDS011;9585;51.018;4.282;2023-04-24T03:48:28;8.15;;;6.70;;
18905;SDS011;9585;51.018;4.282;2023-04-24T03:50:56;7.53;;;6.43;;
18905;SDS011;9585;51.018;4.282;2023-04-24T03:53:31;8.10;;;6.97;;
18905;SDS011;9585;51.018;4.282;2023-04-24T03:56:09;8.20;;;7.03;;
18905;SDS011;9585;51.018;4.282;2023-04-24T03:58:43;8.30;;;6.60;;
18905;SDS011;9585;51.018;4.282;2023-04-24T04:01:22;10.15;;;6.88;;
18905;SDS011;9585;51.018;4.282;2023-04-24T04:03:53;8.23;;;6.88;;
18905;SDS011;9585;51.018;4.282;2023-04-24T04:06:26;7.82;;;6.07;;
18905;SDS011;9585;51.018;4.282;2023-04-24T04:09:08;9.00;;;6.43;;
18905;SDS011;9585;51.018;4.282;2023-04-24T04:11:45;7.88;;;6.38;;
18905;SDS011;9585;51.018;4.282;2023-04-24T04:14:14;9.77;;;7.18;;
18905;SDS011;9585;51.018;4.282;2023-04-24T04:16:43;12.18;;;8.95;;
18905;SDS011;9585;51.018;4.282;2023-04-24T04:19:14;18.23;;;10.88;;
18905;SDS011;9585;51.018;4.282;2023-04-24T04:21:46;18.35;;;12.02;;
18905;SDS011;9585;51.018;4.282;2023-04-24T04:24:21;19.00;;;11.55;;
18905;SDS011;9585;51.018;4.282;2023-04-24T04:27:09;13.35;;;8.75;;
18905;SDS011;9585;51.018;4.282;2023-04-24T04:29:41;10.40;;;6.68;;
18905;SDS011;9585;51.018;4.282;2023-04-24T04:32:17;9.48;;;6.43;;
18905;SDS011;9585;51.018;4.282;2023-04-24T04:34:45;7.50;;;6.03;;
18905;SDS011;9585;51.018;4.282;2023-04-24T04:37:14;8.68;;;6.95;;
18905;SDS011;9585;51.018;4.282;2023-04-24T04:39:42;9.20;;;6.95;;
18905;SDS011;9585;51.018;4.282;2023-04-24T04:42:13;11.20;;;8.32;;
18905;SDS011;9585;51.018;4.282;2023-04-24T04:44:41;11.73;;;8.75;;
18905;SDS011;9585;51.018;4.282;2023-04-24T04:47:17;12.07;;;9.02;;
18905;SDS011;9585;51.018;4.282;2023-04-24T04:52:54;15.88;;;9.48;;
18905;SDS011;9585;51.018;4.282;2023-04-24T04:55:22;13.35;;;9.50;;
18905;SDS011;9585;51.018;4.282;2023-04-24T04:57:50;12.18;;;8.98;;
18905;SDS011;9585;51.018;4.282;2023-04-24T05:00:18;13.48;;;9.05;;
18905;SDS011;9585;51.018;4.282;2023-04-24T05:02:52;13.20;;;8.88;;
18905;SDS011;9585;51.018;4.282;2023-04-24T05:05:19;10.25;;;7.95;;
18905;SDS011;9585;51.018;4.282;2023-04-24T05:07:47;13.65;;;8.52;;
18905;SDS011;9585;51.018;4.282;2023-04-24T05:10:26;14.10;;;8.30;;
18905;SDS011;9585;51.018;4.282;2023-04-24T05:12:55;11.63;;;8.05;;
18905;SDS011;9585;51.018;4.282;2023-04-24T05:15:24;11.77;;;8.25;;
18905;SDS011;9585;51.018;4.282;2023-04-24T05:17:54;11.85;;;8.65;;
18905;SDS011;9585;51.018;4.282;2023-04-24T05:20:23;11.85;;;8.38;;
18905;SDS011;9585;51.018;4.282;2023-04-24T05:23:00;12.45;;;8.50;;
18905;SDS011;9585;51.018;4.282;2023-04-24T05:25:28;11.65;;;7.40;;
18905;SDS011;9585;51.018;4.282;2023-04-24T05:28:00;11.95;;;7.95;;
18905;SDS011;9585;51.018;4.282;2023-04-24T05:30:28;12.55;;;8.68;;
18905;SDS011;9585;51.018;4.282;2023-04-24T05:32:58;12.02;;;8.27;;
18905;SDS011;9585;51.018;4.282;2023-04-24T05:35:35;13.05;;;8.48;;
18905;SDS011;9585;51.018;4.282;2023-04-24T05:41:01;13.60;;;8.10;;
18905;SDS011;9585;51.018;4.282;2023-04-24T05:43:30;11.95;;;8.52;;
18905;SDS011;9585;51.018;4.282;2023-04-24T05:46:05;13.60;;;8.90;;
18905;SDS011;9585;51.018;4.282;2023-04-24T05:48:34;11.77;;;8.73;;
18905;SDS011;9585;51.018;4.282;2023-04-24T05:51:50;14.73;;;10.07;;
18905;SDS011;9585;51.018;4.282;2023-04-24T05:54:19;15.52;;;9.07;;
18905;SDS011;9585;51.018;4.282;2023-04-24T05:57:16;12.40;;;9.32;;
18905;SDS011;9585;51.018;4.282;2023-04-24T05:59:44;13.50;;;8.90;;
18905;SDS011;9585;51.018;4.282;2023-04-24T06:02:16;17.63;;;10.05;;
18905;SDS011;9585;51.018;4.282;2023-04-24T06:04:49;17.02;;;10.07;;
18905;SDS011;9585;51.018;4.282;2023-04-24T06:07:16;14.35;;;10.10;;
18905;SDS011;9585;51.018;4.282;2023-04-24T06:09:43;14.75;;;10.18;;
18905;SDS011;9585;51.018;4.282;2023-04-24T06:12:16;14.77;;;9.88;;
18905;SDS011;9585;51.018;4.282;2023-04-24T06:14:44;14.52;;;9.90;;
18905;SDS011;9585;51.018;4.282;2023-04-24T06:17:23;15.18;;;9.85;;
18905;SDS011;9585;51.018;4.282;2023-04-24T06:20:00;15.27;;;9.88;;
18905;SDS011;9585;51.018;4.282;2023-04-24T06:22:29;16.05;;;10.80;;
18905;SDS011;9585;51.018;4.282;2023-04-24T06:24:56;15.73;;;10.07;;
18905;SDS011;9585;51.018;4.282;2023-04-24T06:27:24;15.65;;;10.15;;
18905;SDS011;9585;51.018;4.282;2023-04-24T06:29:57;19.13;;;10.45;;
18905;SDS011;9585;51.018;4.282;2023-04-24T06:32:35;18.10;;;10.80;;
18905;SDS011;9585;51.018;4.282;2023-04-24T06:35:10;16.05;;;11.07;;
18905;SDS011;9585;51.018;4.282;2023-04-24T06:37:45;13.23;;;10.75;;
18905;SDS011;9585;51.018;4.282;2023-04-24T06:40:21;14.93;;;10.60;;
18905;SDS011;9585;51.018;4.282;2023-04-24T06:42:49;16.60;;;11.55;;
18905;SDS011;9585;51.018;4.282;2023-04-24T06:45:17;19.83;;;11.25;;
18905;SDS011;9585;51.018;4.282;2023-04-24T06:47:54;18.80;;;11.88;;
18905;SDS011;9585;51.018;4.282;2023-04-24T06:50:33;15.38;;;11.32;;
18905;SDS011;9585;51.018;4.282;2023-04-24T06:53:09;18.90;;;11.50;;
18905;SDS011;9585;51.018;4.282;2023-04-24T06:55:45;16.25;;;10.93;;
18905;SDS011;9585;51.018;4.282;2023-04-24T06:58:12;21.15;;;12.05;;
18905;SDS011;9585;51.018;4.282;2023-04-24T07:00:40;16.67;;;11.07;;
18905;SDS011;9585;51.018;4.282;2023-04-24T07:03:19;15.38;;;10.85;;
18905;SDS011;9585;51.018;4.282;2023-04-24T07:05:51;21.35;;;11.80;;
18905;SDS011;9585;51.018;4.282;2023-04-24T07:08:18;20.65;;;12.05;;
18905;SDS011;9585;51.018;4.282;2023-04-24T07:10:48;18.52;;;11.05;;
18905;SDS011;9585;51.018;4.282;2023-04-24T07:13:19;17.45;;;10.65;;
18905;SDS011;9585;51.018;4.282;2023-04-24T07:15:53;14.80;;;10.35;;
18905;SDS011;9585;51.018;4.282;2023-04-24T07:18:27;16.38;;;9.70;;
18905;SDS011;9585;51.018;4.282;2023-04-24T07:20:55;17.05;;;10.32;;
18905;SDS011;9585;51.018;4.282;2023-04-24T07:23:29;13.52;;;9.07;;
18905;SDS011;9585;51.018;4.282;2023-04-24T07:26:20;15.48;;;9.45;;
18905;SDS011;9585;51.018;4.282;2023-04-24T07:28:48;16.45;;;9.05;;
18905;SDS011;9585;51.018;4.282;2023-04-24T07:31:16;16.17;;;9.35;;
18905;SDS011;9585;51.018;4.282;2023-04-24T07:34:07;13.38;;;8.63;;
18905;SDS011;9585;51.018;4.282;2023-04-24T07:36:37;15.00;;;8.90;;
18905;SDS011;9585;51.018;4.282;2023-04-24T07:39:04;16.70;;;9.80;;
18905;SDS011;9585;51.018;4.282;2023-04-24T07:41:32;15.23;;;8.90;;
18905;SDS011;9585;51.018;4.282;2023-04-24T07:43:59;12.55;;;7.82;;
18905;SDS011;9585;51.018;4.282;2023-04-24T07:46:27;16.13;;;7.43;;
18905;SDS011;9585;51.018;4.282;2023-04-24T07:48:55;13.00;;;6.35;;
18905;SDS011;9585;51.018;4.282;2023-04-24T07:51:24;13.50;;;5.68;;
18905;SDS011;9585;51.018;4.282;2023-04-24T07:53:59;11.38;;;4.70;;
18905;SDS011;9585;51.018;4.282;2023-04-24T07:56:28;8.85;;;4.22;;
18905;SDS011;9585;51.018;4.282;2023-04-24T07:58:56;7.57;;;4.07;;
18905;SDS011;9585;51.018;4.282;2023-04-24T08:01:23;8.23;;;3.92;;
18905;SDS011;9585;51.018;4.282;2023-04-24T08:03:51;11.18;;;4.18;;
18905;SDS011;9585;51.018;4.282;2023-04-24T08:06:18;7.93;;;4.07;;
18905;SDS011;9585;51.018;4.282;2023-04-24T08:08:45;10.25;;;4.70;;
18905;SDS011;9585;51.018;4.282;2023-04-24T08:11:14;25.95;;;15.98;;
18905;SDS011;9585;51.018;4.282;2023-04-24T08:13:43;7.45;;;3.47;;
18905;SDS011;9585;51.018;4.282;2023-04-24T08:16:22;6.78;;;3.40;;
18905;SDS011;9585;51.018;4.282;2023-04-24T08:18:58;6.60;;;3.50;;
18905;SDS011;9585;51.018;4.282;2023-04-24T08:21:25;9.30;;;3.53;;
18905;SDS011;9585;51.018;4.282;2023-04-24T08:23:52;6.63;;;3.22;;
18905;SDS011;9585;51.018;4.282;2023-04-24T08:26:21;10.82;;;3.33;;
18905;SDS011;9585;51.018;4.282;2023-04-24T08:28:54;8.68;;;3.03;;
18905;SDS011;9585;51.018;4.282;2023-04-24T08:31:21;8.52;;;3.38;;
18905;SDS011;9585;51.018;4.282;2023-04-24T08:33:50;9.88;;;2.90;;
18905;SDS011;9585;51.018;4.282;2023-04-24T08:36:17;7.95;;;3.10;;
18905;SDS011;9585;51.018;4.282;2023-04-24T08:38:44;10.38;;;2.95;;
18905;SDS011;9585;51.018;4.282;2023-04-24T08:41:12;6.18;;;2.65;;
18905;SDS011;9585;51.018;4.282;2023-04-24T08:43:46;8.27;;;3.22;;
18905;SDS011;9585;51.018;4.282;2023-04-24T08:46:13;12.25;;;3.78;;
18905;SDS011;9585;51.018;4.282;2023-04-24T08:48:42;10.32;;;3.80;;
18905;SDS011;9585;51.018;4.282;2023-04-24T08:51:10;9.38;;;3.92;;
18905;SDS011;9585;51.018;4.282;2023-04-24T08:53:38;8.27;;;3.53;;
18905;SDS011;9585;51.018;4.282;2023-04-24T08:56:06;7.85;;;3.53;;
18905;SDS011;9585;51.018;4.282;2023-04-24T08:58:33;10.68;;;3.60;;
18905;SDS011;9585;51.018;4.282;2023-04-24T09:01:04;6.85;;;3.60;;
18905;SDS011;9585;51.018;4.282;2023-04-24T09:03:31;8.98;;;3.47;;
18905;SDS011;9585;51.018;4.282;2023-04-24T09:06:00;8.02;;;3.28;;
18905;SDS011;9585;51.018;4.282;2023-04-24T09:08:28;6.35;;;3.08;;
18905;SDS011;9585;51.018;4.282;2023-04-24T09:10:57;7.80;;;3.70;;
18905;SDS011;9585;51.018;4.282;2023-04-24T09:13:27;9.00;;;4.60;;
18905;SDS011;9585;51.018;4.282;2023-04-24T09:15:55;9.35;;;3.75;;
18905;SDS011;9585;51.018;4.282;2023-04-24T09:18:27;8.80;;;3.63;;
18905;SDS011;9585;51.018;4.282;2023-04-24T09:20:57;7.20;;;3.50;;
18905;SDS011;9585;51.018;4.282;2023-04-24T09:23:26;6.97;;;3.10;;
18905;SDS011;9585;51.018;4.282;2023-04-24T09:25:55;6.45;;;2.97;;
18905;SDS011;9585;51.018;4.282;2023-04-24T09:28:25;7.38;;;3.10;;
18905;SDS011;9585;51.018;4.282;2023-04-24T09:31:03;5.70;;;2.80;;
18905;SDS011;9585;51.018;4.282;2023-04-24T09:33:33;5.38;;;2.80;;
18905;SDS011;9585;51.018;4.282;2023-04-24T09:36:01;8.77;;;2.90;;
18905;SDS011;9585;51.018;4.282;2023-04-24T09:38:33;7.50;;;2.88;;
18905;SDS011;9585;51.018;4.282;2023-04-24T09:41:01;5.35;;;3.08;;
18905;SDS011;9585;51.018;4.282;2023-04-24T09:43:29;6.25;;;3.00;;
18905;SDS011;9585;51.018;4.282;2023-04-24T09:45:58;7.57;;;2.97;;
18905;SDS011;9585;51.018;4.282;2023-04-24T09:48:30;3.95;;;2.85;;
18905;SDS011;9585;51.018;4.282;2023-04-24T09:51:00;6.93;;;3.17;;
18905;SDS011;9585;51.018;4.282;2023-04-24T09:53:28;5.88;;;2.95;;
18905;SDS011;9585;51.018;4.282;2023-04-24T09:55:56;7.38;;;3.05;;
18905;SDS011;9585;51.018;4.282;2023-04-24T09:58:29;7.45;;;2.80;;
18905;SDS011;9585;51.018;4.282;2023-04-24T10:00:57;7.13;;;3.70;;
18905;SDS011;9585;51.018;4.282;2023-04-24T10:03:25;7.00;;;3.38;;
18905;SDS011;9585;51.018;4.282;2023-04-24T10:05:59;6.18;;;3.10;;
18905;SDS011;9585;51.018;4.282;2023-04-24T10:08:26;8.63;;;3.00;;
18905;SDS011;9585;51.018;4.282;2023-04-24T10:11:00;8.10;;;3.30;;
18905;SDS011;9585;51.018;4.282;2023-04-24T10:13:27;7.38;;;3.65;;
18905;SDS011;9585;51.018;4.282;2023-04-24T10:15:55;6.93;;;3.53;;
18905;SDS011;9585;51.018;4.282;2023-04-24T10:18:25;7.80;;;3.25;;
18905;SDS011;9585;51.018;4.282;2023-04-24T10:20:52;6.63;;;3.40;;
18905;SDS011;9585;51.018;4.282;2023-04-24T10:23:25;5.45;;;3.35;;
18905;SDS011;9585;51.018;4.282;2023-04-24T10:25:52;5.75;;;3.28;;
18905;SDS011;9585;51.018;4.282;2023-04-24T10:28:21;7.65;;;3.33;;
18905;SDS011;9585;51.018;4.282;2023-04-24T10:30:48;6.55;;;3.20;;
18905;SDS011;9585;51.018;4.282;2023-04-24T10:33:20;5.47;;;3.53;;
18905;SDS011;9585;51.018;4.282;2023-04-24T10:35:51;6.10;;;2.95;;
18905;SDS011;9585;51.018;4.282;2023-04-24T10:38:21;6.00;;;3.40;;
18905;SDS011;9585;51.018;4.282;2023-04-24T10:40:54;5.60;;;3.30;;
18905;SDS011;9585;51.018;4.282;2023-04-24T10:43:34;4.57;;;2.90;;
18905;SDS011;9585;51.018;4.282;2023-04-24T10:46:02;4.28;;;2.97;;
18905;SDS011;9585;51.018;4.282;2023-04-24T10:48:35;6.60;;;2.88;;
18905;SDS011;9585;51.018;4.282;2023-04-24T10:51:10;7.03;;;2.90;;
18905;SDS011;9585;51.018;4.282;2023-04-24T10:53:40;6.07;;;3.00;;
18905;SDS011;9585;51.018;4.282;2023-04-24T10:56:11;4.97;;;2.67;;
18905;SDS011;9585;51.018;4.282;2023-04-24T10:58:39;4.55;;;2.38;;
18905;SDS011;9585;51.018;4.282;2023-04-24T11:01:10;6.07;;;2.40;;
18905;SDS011;9585;51.018;4.282;2023-04-24T11:03:54;5.30;;;2.38;;
18905;SDS011;9585;51.018;4.282;2023-04-24T11:06:28;5.70;;;2.40;;
18905;SDS011;9585;51.018;4.282;2023-04-24T11:08:59;4.88;;;2.60;;
18905;SDS011;9585;51.018;4.282;2023-04-24T11:11:32;5.93;;;3.17;;
18905;SDS011;9585;51.018;4.282;2023-04-24T11:14:04;4.63;;;2.45;;
18905;SDS011;9585;51.018;4.282;2023-04-24T11:16:39;5.63;;;2.80;;
18905;SDS011;9585;51.018;4.282;2023-04-24T11:19:10;4.35;;;3.05;;
18905;SDS011;9585;51.018;4.282;2023-04-24T11:21:46;6.63;;;2.90;;
18905;SDS011;9585;51.018;4.282;2023-04-24T11:24:22;5.28;;;3.38;;
18905;SDS011;9585;51.018;4.282;2023-04-24T11:26:55;5.57;;;3.15;;
18905;SDS011;9585;51.018;4.282;2023-04-24T11:29:37;4.75;;;2.45;;
18905;SDS011;9585;51.018;4.282;2023-04-24T11:32:16;6.25;;;3.10;;
18905;SDS011;9585;51.018;4.282;2023-04-24T11:34:52;4.43;;;2.83;;
18905;SDS011;9585;51.018;4.282;2023-04-24T11:37:21;4.22;;;2.22;;
18905;SDS011;9585;51.018;4.282;2023-04-24T11:39:52;3.38;;;2.60;;
18905;SDS011;9585;51.018;4.282;2023-04-24T11:42:22;6.22;;;3.00;;
18905;SDS011;9585;51.018;4.282;2023-04-24T11:44:52;5.80;;;3.40;;
18905;SDS011;9585;51.018;4.282;2023-04-24T11:47:27;6.03;;;3.15;;
18905;SDS011;9585;51.018;4.282;2023-04-24T11:49:59;6.13;;;3.03;;
18905;SDS011;9585;51.018;4.282;2023-04-24T11:52:27;4.53;;;2.58;;
18905;SDS011;9585;51.018;4.282;2023-04-24T11:54:56;4.10;;;2.70;;
18905;SDS011;9585;51.018;4.282;2023-04-24T11:57:26;7.10;;;3.10;;
18905;SDS011;9585;51.018;4.282;2023-04-24T11:59:58;4.95;;;3.30;;
18905;SDS011;9585;51.018;4.282;2023-04-24T12:02:26;6.55;;;3.08;;
18905;SDS011;9585;51.018;4.282;2023-04-24T12:04:55;10.30;;;4.00;;
18905;SDS011;9585;51.018;4.282;2023-04-24T12:07:23;7.50;;;3.10;;
18905;SDS011;9585;51.018;4.282;2023-04-24T12:09:55;7.10;;;2.70;;
18905;SDS011;9585;51.018;4.282;2023-04-24T12:12:28;6.20;;;2.83;;
18905;SDS011;9585;51.018;4.282;2023-04-24T12:14:59;7.40;;;2.88;;
18905;SDS011;9585;51.018;4.282;2023-04-24T12:17:27;4.55;;;2.72;;
18905;SDS011;9585;51.018;4.282;2023-04-24T12:19:58;4.13;;;2.80;;
18905;SDS011;9585;51.018;4.282;2023-04-24T12:22:27;5.35;;;3.05;;
18905;SDS011;9585;51.018;4.282;2023-04-24T12:24:57;5.25;;;2.75;;
18905;SDS011;9585;51.018;4.282;2023-04-24T12:27:31;4.68;;;2.65;;
18905;SDS011;9585;51.018;4.282;2023-04-24T12:30:05;5.22;;;2.80;;
18905;SDS011;9585;51.018;4.282;2023-04-24T12:32:43;5.05;;;3.00;;
18905;SDS011;9585;51.018;4.282;2023-04-24T12:35:13;5.47;;;2.80;;
18905;SDS011;9585;51.018;4.282;2023-04-24T12:37:46;3.22;;;2.70;;
18905;SDS011;9585;51.018;4.282;2023-04-24T12:40:13;5.45;;;2.80;;
18905;SDS011;9585;51.018;4.282;2023-04-24T12:42:46;4.65;;;2.92;;
18905;SDS011;9585;51.018;4.282;2023-04-24T12:45:15;5.38;;;2.88;;
18905;SDS011;9585;51.018;4.282;2023-04-24T12:47:44;6.00;;;2.75;;
18905;SDS011;9585;51.018;4.282;2023-04-24T12:50:12;6.65;;;2.90;;
18905;SDS011;9585;51.018;4.282;2023-04-24T12:52:40;5.70;;;2.65;;
18905;SDS011;9585;51.018;4.282;2023-04-24T12:55:09;5.55;;;2.50;;
18905;SDS011;9585;51.018;4.282;2023-04-24T12:57:37;3.53;;;2.17;;
18905;SDS011;9585;51.018;4.282;2023-04-24T13:00:08;4.90;;;2.28;;
18905;SDS011;9585;51.018;4.282;2023-04-24T13:02:36;4.75;;;2.33;;
18905;SDS011;9585;51.018;4.282;2023-04-24T13:05:03;3.95;;;2.10;;
18905;SDS011;9585;51.018;4.282;2023-04-24T13:07:32;4.88;;;2.10;;
18905;SDS011;9585;51.018;4.282;2023-04-24T13:10:00;4.03;;;2.08;;
18905;SDS011;9585;51.018;4.282;2023-04-24T13:12:27;4.40;;;1.83;;
18905;SDS011;9585;51.018;4.282;2023-04-24T13:14:55;4.95;;;2.00;;
18905;SDS011;9585;51.018;4.282;2023-04-24T13:17:25;3.55;;;1.60;;
18905;SDS011;9585;51.018;4.282;2023-04-24T13:19:54;3.47;;;1.70;;
18905;SDS011;9585;51.018;4.282;2023-04-24T13:22:22;2.53;;;1.60;;
18905;SDS011;9585;51.018;4.282;2023-04-24T13:24:50;5.15;;;1.75;;
18905;SDS011;9585;51.018;4.282;2023-04-24T13:27:17;5.07;;;1.70;;
18905;SDS011;9585;51.018;4.282;2023-04-24T13:29:45;3.72;;;1.52;;
18905;SDS011;9585;51.018;4.282;2023-04-24T13:32:12;2.80;;;1.42;;
18905;SDS011;9585;51.018;4.282;2023-04-24T13:34:41;4.30;;;1.45;;
18905;SDS011;9585;51.018;4.282;2023-04-24T13:37:09;2.88;;;1.40;;
18905;SDS011;9585;51.018;4.282;2023-04-24T13:39:37;2.90;;;1.45;;
18905;SDS011;9585;51.018;4.282;2023-04-24T13:42:04;2.92;;;1.60;;
18905;SDS011;9585;51.018;4.282;2023-04-24T13:44:31;3.08;;;1.70;;
18905;SDS011;9585;51.018;4.282;2023-04-24T13:46:59;3.92;;;2.08;;
18905;SDS011;9585;51.018;4.282;2023-04-24T13:49:26;3.80;;;2.78;;
18905;SDS011;9585;51.018;4.282;2023-04-24T13:51:55;6.22;;;2.50;;
18905;SDS011;9585;51.018;4.282;2023-04-24T13:54:23;6.80;;;2.50;;
18905;SDS011;9585;51.018;4.282;2023-04-24T13:56:51;5.15;;;2.50;;
18905;SDS011;9585;51.018;4.282;2023-04-24T13:59:19;6.32;;;2.70;;
18905;SDS011;9585;51.018;4.282;2023-04-24T14:01:47;5.30;;;2.83;;
18905;SDS011;9585;51.018;4.282;2023-04-24T14:04:14;4.18;;;2.53;;
18905;SDS011;9585;51.018;4.282;2023-04-24T14:06:43;4.78;;;2.78;;
18905;SDS011;9585;51.018;4.282;2023-04-24T14:09:12;6.35;;;2.53;;
18905;SDS011;9585;51.018;4.282;2023-04-24T14:11:43;5.47;;;2.90;;
18905;SDS011;9585;51.018;4.282;2023-04-24T14:14:11;5.97;;;2.00;;
18905;SDS011;9585;51.018;4.282;2023-04-24T14:16:38;4.70;;;1.90;;
18905;SDS011;9585;51.018;4.282;2023-04-24T14:19:05;3.67;;;2.20;;
18905;SDS011;9585;51.018;4.282;2023-04-24T14:21:33;3.75;;;2.25;;
18905;SDS011;9585;51.018;4.282;2023-04-24T14:24:05;3.78;;;2.40;;
18905;SDS011;9585;51.018;4.282;2023-04-24T14:26:38;4.22;;;2.58;;
18905;SDS011;9585;51.018;4.282;2023-04-24T14:29:06;7.10;;;3.45;;
18905;SDS011;9585;51.018;4.282;2023-04-24T14:31:33;5.05;;;3.30;;
18905;SDS011;9585;51.018;4.282;2023-04-24T14:34:01;6.88;;;3.67;;
18905;SDS011;9585;51.018;4.282;2023-04-24T14:36:28;3.90;;;2.92;;
18905;SDS011;9585;51.018;4.282;2023-04-24T14:38:56;5.43;;;2.63;;
18905;SDS011;9585;51.018;4.282;2023-04-24T14:41:23;3.67;;;2.55;;
18905;SDS011;9585;51.018;4.282;2023-04-24T14:43:52;4.28;;;2.45;;
18905;SDS011;9585;51.018;4.282;2023-04-24T14:46:20;2.45;;;1.98;;
18905;SDS011;9585;51.018;4.282;2023-04-24T14:48:47;3.15;;;1.80;;
18905;SDS011;9585;51.018;4.282;2023-04-24T14:51:15;4.72;;;1.42;;
18905;SDS011;9585;51.018;4.282;2023-04-24T14:53:42;3.00;;;1.55;;
18905;SDS011;9585;51.018;4.282;2023-04-24T14:56:11;3.65;;;1.60;;
18905;SDS011;9585;51.018;4.282;2023-04-24T14:58:39;3.85;;;2.25;;
18905;SDS011;9585;51.018;4.282;2023-04-24T15:01:08;6.18;;;2.00;;
18905;SDS011;9585;51.018;4.282;2023-04-24T15:03:35;4.63;;;1.67;;
18905;SDS011;9585;51.018;4.282;2023-04-24T15:06:03;6.07;;;2.95;;
18905;SDS011;9585;51.018;4.282;2023-04-24T15:08:30;17.90;;;11.48;;
18905;SDS011;9585;51.018;4.282;2023-04-24T15:10:58;5.55;;;4.20;;
18905;SDS011;9585;51.018;4.282;2023-04-24T15:13:25;5.10;;;2.40;;
18905;SDS011;9585;51.018;4.282;2023-04-24T15:15:52;3.75;;;2.65;;
18905;SDS011;9585;51.018;4.282;2023-04-24T15:18:21;6.57;;;2.70;;
18905;SDS011;9585;51.018;4.282;2023-04-24T15:20:48;3.53;;;1.85;;
18905;SDS011;9585;51.018;4.282;2023-04-24T15:23:16;3.92;;;1.67;;